Time;durP1;ratioP1;P1;durP2;ratioP2;P2;SDS_P1;SDS_P2;PMS_P1;PMS_P2;Temp;Humidity;BMP_temperature;BMP_pressure;BME280_temperature;BME280_humidity;BME280_pressure;Samples;Min_cycle;Max_cycle;Signal;HPM_P1;HPM_P2
2022/03/10 00:03:41;;;;;;;9.00;3.97;;;11.80;64.70;;;;;;20587322;28;20069;-61
2022/03/10 00:13:44;;;;;;;9.30;3.28;;;11.80;65.00;;;;;;20586309;28;20134;-63
2022/03/10 00:23:46;;;;;;;9.93;2.88;;;11.70;65.30;;;;;;20586481;28;20058;-64
2022/03/10 00:33:48;;;;;;;10.13;3.30;;;11.60;65.80;;;;;;20586868;28;20071;-63
2022/03/10 00:43:50;;;;;;;8.00;3.10;;;11.60;66.20;;;;;;20585107;28;20530;-61
2022/03/10 00:53:52;;;;;;;10.52;3.00;;;11.50;66.40;;;;;;20584882;28;20410;-66
2022/03/10 01:03:54;;;;;;;7.65;3.17;;;11.50;66.60;;;;;;20584446;28;20054;-61
2022/03/10 01:13:55;;;;;;;5.82;2.70;;;11.40;66.90;;;;;;20584985;28;20442;-63
2022/03/10 01:23:57;;;;;;;8.63;2.35;;;11.30;67.10;;;;;;20590659;28;20086;-61
2022/03/10 01:33:59;;;;;;;7.47;2.88;;;11.10;67.60;;;;;;20598239;28;20047;-61
2022/03/10 01:44:08;;;;;;;10.18;3.60;;;11.10;67.70;;;;;;20596544;28;20058;-63
2022/03/10 01:54:11;;;;;;;10.63;3.33;;;11.10;67.80;;;;;;20596744;28;20061;-62
2022/03/10 02:04:12;;;;;;;8.90;3.10;;;11.10;67.80;;;;;;20596398;28;20502;-60
2022/03/10 02:24:36;;;;;;;9.23;4.05;;;10.90;68.50;;;;;;20594121;28;20070;-61
2022/03/10 02:34:40;;;;;;;9.90;3.72;;;11.10;67.60;;;;;;20591720;28;20069;-60
2022/03/10 02:44:47;;;;;;;10.13;3.75;;;11.10;66.60;;;;;;20592796;28;20054;-60
2022/03/10 02:55:08;;;;;;;12.82;3.53;;;11.20;66.20;;;;;;20592089;28;20078;-59
2022/03/10 03:05:13;;;;;;;6.40;3.55;;;11.20;66.00;;;;;;20590346;28;20059;-61
2022/03/10 03:15:34;;;;;;;8.43;3.28;;;11.20;66.00;;;;;;20589659;28;20057;-60
2022/03/10 03:25:55;;;;;;;7.88;3.05;;;11.20;65.50;;;;;;20588644;28;20054;-61
2022/03/10 03:36:17;;;;;;;10.13;2.90;;;11.10;65.30;;;;;;20589094;28;20149;-62
2022/03/10 03:46:40;;;;;;;4.90;2.95;;;11.10;64.90;;;;;;20587296;28;20054;-61
2022/03/10 03:57:01;;;;;;;6.18;3.38;;;11.00;65.30;;;;;;20588432;28;20057;-61
2022/03/10 04:07:22;;;;;;;7.65;3.80;;;10.90;65.70;;;;;;20586406;28;20050;-61
2022/03/10 04:17:43;;;;;;;7.30;4.78;;;10.80;66.00;;;;;;20587333;28;20467;-62
2022/03/10 04:28:05;;;;;;;8.32;5.30;;;10.70;66.50;;;;;;20585467;28;20055;-62
2022/03/10 04:38:26;;;;;;;9.15;4.55;;;10.60;67.00;;;;;;20586208;28;20451;-62
2022/03/10 04:48:47;;;;;;;8.23;5.00;;;10.60;67.10;;;;;;20584897;28;20059;-61
2022/03/10 04:59:08;;;;;;;6.40;4.68;;;10.60;67.00;;;;;;20592481;28;20105;-61
2022/03/10 05:09:24;;;;;;;8.35;5.07;;;10.60;67.20;;;;;;20599758;28;20142;-62
2022/03/10 05:19:37;;;;;;;7.95;5.35;;;10.50;67.40;;;;;;20599084;28;20051;-61
2022/03/10 05:29:44;;;;;;;8.10;4.72;;;10.50;67.50;;;;;;20598422;28;20082;-60
2022/03/10 05:39:49;;;;;;;7.70;4.30;;;10.50;67.70;;;;;;20596909;28;20053;-61
2022/03/10 05:49:54;;;;;;;7.97;5.07;;;10.50;67.70;;;;;;20598556;28;20050;-60
2022/03/10 05:59:59;;;;;;;8.23;5.00;;;10.50;67.60;;;;;;20596054;28;20092;-61
2022/03/10 06:10:03;;;;;;;8.65;4.97;;;10.50;67.50;;;;;;20594884;28;20157;-61
2022/03/10 06:20:06;;;;;;;7.93;5.47;;;10.40;67.80;;;;;;20593990;28;20061;-59
2022/03/10 06:30:09;;;;;;;7.38;5.00;;;10.40;67.90;;;;;;20593520;28;20050;-60
2022/03/10 06:40:12;;;;;;;8.68;5.82;;;10.40;68.10;;;;;;20591032;28;20059;-62
2022/03/10 06:50:14;;;;;;;7.32;4.97;;;10.30;68.20;;;;;;20591854;28;20046;-62
2022/03/10 07:00:16;;;;;;;12.23;6.60;;;10.30;68.40;;;;;;20591816;28;20589;-62
2022/03/10 07:10:18;;;;;;;12.77;5.75;;;10.40;68.30;;;;;;20590515;28;20451;-62
2022/03/10 07:20:21;;;;;;;9.35;5.88;;;10.40;68.40;;;;;;20588417;28;20073;-62
2022/03/10 07:30:23;;;;;;;10.65;6.35;;;10.50;69.00;;;;;;20588153;28;20055;-61
2022/03/10 07:40:26;;;;;;;10.85;6.22;;;10.50;69.20;;;;;;20588018;28;20062;-61
2022/03/10 07:50:28;;;;;;;8.77;5.63;;;10.60;69.50;;;;;;20586895;28;20061;-61
2022/03/10 08:00:32;;;;;;;9.57;7.03;;;10.70;69.10;;;;;;20587499;28;20047;-61
2022/03/10 08:10:34;;;;;;;9.50;5.80;;;10.70;69.20;;;;;;20586890;28;20171;-61
2022/03/10 08:20:39;;;;;;;20.15;6.50;;;10.70;69.30;;;;;;20585433;28;20415;-63
2022/03/10 08:30:41;;;;;;;19.90;12.32;;;10.70;69.10;;;;;;20588805;28;20138;-62
2022/03/10 08:40:43;;;;;;;8.98;6.07;;;10.60;69.80;;;;;;20601164;28;20094;-62
2022/03/10 08:50:46;;;;;;;10.45;6.25;;;10.60;70.50;;;;;;20601763;28;20081;-62
2022/03/10 09:00:48;;;;;;;12.35;7.55;;;10.40;71.40;;;;;;20599881;28;20554;-62
2022/03/10 09:10:50;;;;;;;15.98;7.70;;;10.30;72.20;;;;;;20600494;28;20102;-61
2022/03/10 09:21:11;;;;;;;14.15;7.35;;;10.20;72.80;;;;;;20599154;28;20050;-64
2022/03/10 09:31:16;;;;;;;20.08;9.68;;;10.30;72.90;;;;;;20599072;28;20086;-61
2022/03/10 09:41:18;;;;;;;11.38;7.47;;;10.40;72.90;;;;;;20596376;28;20130;-61
2022/03/10 09:51:25;;;;;;;9.60;6.32;;;11.00;71.50;;;;;;20596357;28;20047;-60
2022/03/10 10:01:27;;;;;;;9.43;7.00;;;11.30;69.70;;;;;;20596682;28;20038;-61
2022/03/10 10:11:34;;;;;;;12.25;6.90;;;11.40;69.20;;;;;;20594975;28;20058;-63
2022/03/10 10:21:36;;;;;;;11.45;7.10;;;11.50;69.10;;;;;;20601234;28;20137;-62
2022/03/10 10:31:38;;;;;;;8.65;4.80;;;11.70;68.50;;;;;;20666254;28;20057;-64
2022/03/10 10:41:42;;;;;;;10.75;6.20;;;12.00;67.90;;;;;;20666752;28;20042;-67
2022/03/10 10:51:48;;;;;;;12.40;7.30;;;13.20;65.50;;;;;;20663586;28;20096;-60
2022/03/10 11:01:50;;;;;;;13.07;7.40;;;13.90;62.90;;;;;;20667824;28;20186;-63
2022/03/10 11:11:53;;;;;;;12.25;8.57;;;13.40;64.20;;;;;;20663032;28;20054;-63
2022/03/10 11:22:11;;;;;;;13.13;7.32;;;13.80;63.40;;;;;;20658776;28;20544;-60
2022/03/10 11:32:13;;;;;;;11.45;7.63;;;13.80;63.00;;;;;;20667148;28;20478;-60
2022/03/10 11:42:30;;;;;;;11.85;7.18;;;14.00;62.10;;;;;;20660299;28;20054;-63
2022/03/10 11:52:40;;;;;;;7.47;5.03;;;14.40;60.50;;;;;;20642585;28;20053;-61
2022/03/10 12:02:43;;;;;;;12.45;8.18;;;16.20;57.20;;;;;;20665671;28;20049;-61
2022/03/10 12:12:46;;;;;;;11.68;6.93;;;17.00;54.70;;;;;;20663469;28;20049;-73
2022/03/10 12:23:03;;;;;;;8.82;5.13;;;16.60;55.50;;;;;;20661959;28;20058;-69
2022/03/10 12:33:05;;;;;;;10.43;5.57;;;16.70;54.00;;;;;;20664489;28;20050;-63
2022/03/10 12:43:09;;;;;;;7.60;3.88;;;17.00;54.00;;;;;;20677286;28;20049;-65
2022/03/10 12:53:15;;;;;;;5.35;3.53;;;17.00;52.60;;;;;;20664291;28;20057;-62
2022/03/10 13:03:17;;;;;;;9.77;3.20;;;16.80;52.50;;;;;;20663530;28;20047;-64
2022/03/10 13:13:29;;;;;;;8.13;3.28;;;17.90;50.60;;;;;;20663564;28;20054;-66
2022/03/10 13:23:31;;;;;;;10.55;3.70;;;17.60;50.30;;;;;;20676967;28;20065;-68
2022/03/10 13:33:34;;;;;;;3.55;1.42;;;16.70;50.20;;;;;;20677291;28;20050;-63
2022/03/10 13:43:37;;;;;;;3.65;1.33;;;16.40;49.40;;;;;;20677621;28;20050;-64
2022/03/10 13:53:39;;;;;;;3.55;1.30;;;16.60;49.30;;;;;;20676330;28;20149;-63
2022/03/10 14:03:42;;;;;;;7.68;1.77;;;16.60;48.50;;;;;;20678195;28;20058;-65
2022/03/10 14:13:47;;;;;;;2.50;1.20;;;16.60;48.90;;;;;;20675521;28;20392;-64
2022/03/10 14:23:56;;;;;;;7.40;1.30;;;16.70;48.70;;;;;;20674867;28;20085;-64
2022/03/10 14:33:57;;;;;;;6.28;1.55;;;16.90;48.10;;;;;;20673459;28;20050;-64
2022/03/10 14:44:00;;;;;;;4.10;1.00;;;17.10;47.70;;;;;;20673770;28;20060;-62
2022/03/10 14:54:03;;;;;;;3.53;1.15;;;17.00;47.80;;;;;;20672449;28;20050;-65
2022/03/10 15:04:09;;;;;;;3.28;1.05;;;16.70;48.20;;;;;;20671544;28;20132;-64
2022/03/10 15:14:12;;;;;;;2.97;1.08;;;16.60;48.30;;;;;;20671366;28;20085;-63
2022/03/10 15:24:14;;;;;;;3.15;1.10;;;16.70;48.00;;;;;;20669879;28;20065;-65
2022/03/10 15:34:16;;;;;;;3.30;0.90;;;16.60;47.50;;;;;;20669253;28;20540;-65
2022/03/10 15:44:19;;;;;;;3.33;0.98;;;16.90;46.70;;;;;;20668029;28;20108;-64
2022/03/10 15:54:21;;;;;;;3.00;1.08;;;17.10;46.00;;;;;;20668860;28;20054;-65
2022/03/10 16:04:24;;;;;;;2.53;0.95;;;16.90;46.20;;;;;;20667509;28;20054;-63
2022/03/10 16:14:26;;;;;;;2.97;1.20;;;16.90;46.30;;;;;;20666338;28;20046;-64
2022/03/10 16:24:28;;;;;;;4.03;1.33;;;16.70;46.40;;;;;;20665312;28;20054;-65
2022/03/10 16:34:32;;;;;;;4.82;0.90;;;16.40;46.60;;;;;;20665717;28;20430;-65
2022/03/10 16:44:34;;;;;;;2.78;1.20;;;16.20;47.10;;;;;;20667095;28;20454;-65
2022/03/10 16:54:36;;;;;;;5.05;1.20;;;16.20;47.60;;;;;;20673799;28;20057;-64
2022/03/10 17:04:39;;;;;;;4.95;1.50;;;16.30;47.80;;;;;;20681207;28;20101;-63
2022/03/10 17:14:41;;;;;;;4.70;1.38;;;16.30;48.00;;;;;;20678936;28;20043;-62
2022/03/10 17:24:44;;;;;;;10.82;1.30;;;16.10;48.70;;;;;;20678031;28;20558;-67
2022/03/10 17:35:05;;;;;;;3.53;1.20;;;15.90;49.80;;;;;;20678118;28;20128;-61
2022/03/10 17:45:08;;;;;;;3.97;1.17;;;15.70;49.90;;;;;;20677718;28;20057;-63
2022/03/10 17:55:10;;;;;;;4.20;1.38;;;15.50;50.10;;;;;;20675822;28;20112;-58
2022/03/10 18:05:13;;;;;;;5.05;1.67;;;15.40;51.50;;;;;;20668185;28;20589;-63
2022/03/10 18:15:16;;;;;;;4.97;1.30;;;15.60;51.40;;;;;;20636516;28;20454;-61
2022/03/10 18:25:18;;;;;;;4.40;1.05;;;15.40;51.50;;;;;;20673248;28;20065;-66
2022/03/10 18:35:20;;;;;;;4.93;1.48;;;14.80;52.70;;;;;;20664439;28;20050;-64
2022/03/10 18:45:22;;;;;;;3.08;1.08;;;14.70;53.30;;;;;;20648327;28;20109;-58
2022/03/10 18:55:24;;;;;;;7.00;1.60;;;14.60;54.80;;;;;;20661508;28;20133;-70
2022/03/10 19:05:27;;;;;;;6.13;2.33;;;15.30;53.30;;;;;;20590940;28;20101;-64
2022/03/10 19:15:29;;;;;;;8.23;2.20;;;14.80;54.20;;;;;;20589503;28;20057;-61
2022/03/10 19:25:31;;;;;;;4.90;1.63;;;14.40;54.80;;;;;;20660038;28;20458;-66
2022/03/10 19:35:33;;;;;;;5.72;2.00;;;14.20;55.60;;;;;;20669956;28;20491;-58
2022/03/10 19:45:35;;;;;;;11.77;2.75;;;14.20;56.00;;;;;;20664782;28;20105;-55
2022/03/10 19:55:37;;;;;;;8.40;2.25;;;14.40;58.70;;;;;;20664723;28;20050;-61
2022/03/10 20:05:40;;;;;;;13.95;3.90;;;15.30;55.20;;;;;;20667789;28;20058;-60
2022/03/10 20:15:42;;;;;;;8.88;3.30;;;14.40;56.80;;;;;;20680612;28;20384;-62
2022/03/10 20:25:44;;;;;;;11.80;4.13;;;14.00;57.40;;;;;;20671730;28;20123;-60
2022/03/10 20:35:47;;;;;;;12.73;4.25;;;13.80;58.10;;;;;;20693133;28;20070;-61
2022/03/10 20:45:48;;;;;;;13.82;5.40;;;13.70;58.50;;;;;;20693789;28;20058;-60
2022/03/10 20:55:50;;;;;;;9.52;4.55;;;13.60;59.00;;;;;;20692415;28;20062;-62
2022/03/10 21:05:52;;;;;;;12.18;4.57;;;13.50;59.70;;;;;;20706741;28;20050;-62
2022/03/10 21:15:54;;;;;;;17.73;6.70;;;13.40;60.40;;;;;;20692703;28;20054;-62
2022/03/10 21:25:56;;;;;;;11.75;3.70;;;13.20;60.90;;;;;;20691247;28;20113;-62
2022/03/10 21:35:58;;;;;;;12.70;3.85;;;13.20;61.20;;;;;;20688455;28;20122;-61
2022/03/10 21:46:00;;;;;;;21.42;7.85;;;13.10;61.50;;;;;;20677629;28;20077;-60
2022/03/10 21:56:02;;;;;;;9.23;4.05;;;13.00;61.60;;;;;;20677397;28;20038;-61
2022/03/10 22:06:04;;;;;;;11.75;4.50;;;12.90;62.00;;;;;;20676126;28;20141;-60
2022/03/10 22:16:06;;;;;;;9.95;4.50;;;12.80;62.20;;;;;;20677270;28;20145;-62
2022/03/10 22:26:09;;;;;;;12.38;5.00;;;12.70;62.40;;;;;;20675882;28;20062;-62
2022/03/10 22:36:11;;;;;;;10.98;4.20;;;12.60;62.90;;;;;;20674908;28;20050;-62
2022/03/10 22:46:13;;;;;;;9.00;3.97;;;12.50;62.90;;;;;;20688728;28;20530;-63
2022/03/10 22:56:14;;;;;;;10.77;5.22;;;12.30;63.10;;;;;;20673814;28;20058;-62
2022/03/10 23:16:36;;;;;;;8.85;4.43;;;12.40;63.20;;;;;;20671325;28;20049;-59
2022/03/10 23:26:38;;;;;;;10.23;4.45;;;12.30;63.30;;;;;;20670150;28;20054;-61
2022/03/10 23:36:39;;;;;;;11.27;4.30;;;12.20;63.20;;;;;;20669732;28;20054;-60
2022/03/10 23:46:41;;;;;;;13.02;4.55;;;12.10;63.60;;;;;;20668943;28;20058;-61
2022/03/10 23:56:44;;;;;;;13.30;4.97;;;12.00;63.90;;;;;;20668119;28;20486;-58
